Time;durP1;ratioP1;P1;durP2;ratioP2;P2;SDS_P1;SDS_P2;PMS_P1;PMS_P2;Temp;Humidity;BMP_temperature;BMP_pressure;BME280_temperature;BME280_humidity;BME280_pressure;Samples;Min_cycle;Max_cycle;Signal;HPM_P1;HPM_P2
2022/08/27 00:00:01;;;;;;;;;;;;;;;23.01;57.81;101462.34;1049770;28;637;-66
2022/08/27 00:00:51;;;;;;;;;;;;;;;23.01;57.88;101461.47;1049276;28;625;-67
2022/08/27 00:01:42;;;;;;;;;;;;;;;23.01;58.06;101459.63;1049691;28;684;-67
2022/08/27 00:02:34;;;;;;;;;;;;;;;23.00;58.07;101460.63;1049202;28;716;-67
2022/08/27 00:03:25;;;;;;;;;;;;;;;22.99;57.72;101464.38;1049719;28;675;-67
2022/08/27 00:04:15;;;;;;;;;;;;;;;22.98;57.77;101461.81;1049246;28;681;-67
2022/08/27 00:05:06;;;;;;;;;;;;;;;22.99;57.72;101461.66;1049787;28;669;-67
2022/08/27 00:05:56;;;;;;;;;;;;;;;22.99;57.69;101467.09;1049280;28;849;-68
2022/08/27 00:06:46;;;;;;;;;;;;;;;22.94;57.70;101464.00;1049132;28;684;-66
2022/08/27 00:07:37;;;;;;;;;;;;;;;22.93;57.77;101464.19;1049108;28;1914;-67
2022/08/27 00:08:28;;;;;;;;;;;;;;;22.93;58.19;101465.00;1049260;28;689;-67
2022/08/27 00:09:18;;;;;;;;;;;;;;;22.96;57.74;101461.97;1049214;28;649;-67
2022/08/27 00:10:08;;;;;;;;;;;;;;;22.97;57.80;101463.69;1049740;28;688;-67
2022/08/27 00:10:59;;;;;;;;;;;;;;;22.99;58.07;101458.94;1049120;28;637;-67
2022/08/27 00:11:49;;;;;;;;;;;;;;;22.95;58.29;101462.13;1049149;28;768;-67
2022/08/27 00:12:40;;;;;;;;;;;;;;;22.96;57.71;101453.81;1045588;28;629;-67
2022/08/27 00:13:30;;;;;;;;;;;;;;;22.97;58.03;101460.09;1044627;28;704;-67
2022/08/27 00:14:21;;;;;;;;;;;;;;;22.95;57.68;101462.97;1044263;28;686;-67
2022/08/27 00:15:11;;;;;;;;;;;;;;;22.96;57.75;101456.53;1044505;28;618;-67
2022/08/27 00:16:01;;;;;;;;;;;;;;;22.95;58.02;101457.53;1044614;28;658;-68
2022/08/27 00:16:52;;;;;;;;;;;;;;;22.98;57.98;101457.22;1044495;28;630;-67
2022/08/27 00:17:44;;;;;;;;;;;;;;;22.96;57.95;101453.81;1046229;28;752;-67
2022/08/27 00:18:34;;;;;;;;;;;;;;;22.96;57.93;101453.81;1044501;28;673;-67
2022/08/27 00:19:24;;;;;;;;;;;;;;;22.98;57.68;101453.66;1045004;28;704;-67
2022/08/27 00:20:15;;;;;;;;;;;;;;;22.98;57.64;101457.22;1044505;28;614;-67
2022/08/27 00:21:05;;;;;;;;;;;;;;;22.97;58.13;101452.81;1046645;28;695;-67
2022/08/27 00:21:56;;;;;;;;;;;;;;;23.00;57.64;101455.19;1044359;28;642;-67
2022/08/27 00:22:46;;;;;;;;;;;;;;;22.96;58.12;101450.25;1044430;28;737;-67
2022/08/27 00:23:37;;;;;;;;;;;;;;;22.95;58.07;101448.53;1044306;28;745;-67
2022/08/27 00:24:27;;;;;;;;;;;;;;;22.93;58.02;101451.41;1044477;28;827;-67
2022/08/27 00:25:17;;;;;;;;;;;;;;;22.93;58.12;101448.69;1044608;28;650;-67
2022/08/27 00:26:09;;;;;;;;;;;;;;;22.94;57.81;101444.97;1044464;28;674;-67
2022/08/27 00:26:59;;;;;;;;;;;;;;;22.93;58.12;101448.69;1040486;28;646;-67
2022/08/27 00:27:49;;;;;;;;;;;;;;;22.95;58.06;101440.38;1040491;28;646;-67
2022/08/27 00:28:40;;;;;;;;;;;;;;;22.97;58.07;101444.66;1044439;28;626;-67
2022/08/27 00:29:30;;;;;;;;;;;;;;;22.98;57.71;101446.34;1044553;28;702;-67
2022/08/27 00:30:21;;;;;;;;;;;;;;;22.98;57.70;101442.78;1044923;28;660;-67
2022/08/27 00:31:11;;;;;;;;;;;;;;;22.98;58.03;101434.63;1043974;28;630;-67
2022/08/27 00:32:02;;;;;;;;;;;;;;;22.97;58.04;101439.22;1044391;28;689;-67
2022/08/27 00:32:52;;;;;;;;;;;;;;;22.97;57.98;101433.78;1046561;28;657;-67
2022/08/27 00:33:43;;;;;;;;;;;;;;;22.96;57.60;101431.22;1040478;28;646;-67
2022/08/27 00:34:33;;;;;;;;;;;;;;;22.98;58.06;101434.63;1040532;28;889;-67
2022/08/27 00:35:24;;;;;;;;;;;;;;;22.91;57.98;101437.16;1044747;28;694;-67
2022/08/27 00:36:14;;;;;;;;;;;;;;;22.94;57.64;101434.09;1046648;28;657;-67
2022/08/27 00:37:05;;;;;;;;;;;;;;;22.97;57.62;101441.06;1044221;28;706;-67
2022/08/27 00:37:55;;;;;;;;;;;;;;;22.93;57.62;101440.53;1044046;28;647;-67
2022/08/27 00:38:46;;;;;;;;;;;;;;;22.93;58.20;101432.41;1044912;28;626;-67
2022/08/27 00:39:36;;;;;;;;;;;;;;;22.91;57.85;101439.91;1044351;28;736;-67
2022/08/27 00:40:27;;;;;;;;;;;;;;;22.92;58.14;101441.59;1046709;28;655;-67
2022/08/27 00:41:18;;;;;;;;;;;;;;;22.89;58.26;101435.63;1044419;28;651;-67
2022/08/27 00:42:08;;;;;;;;;;;;;;;22.92;57.75;101432.59;1043755;28;646;-67
2022/08/27 00:43:02;;;;;;;;;;;;;;;22.92;58.12;101438.88;1046478;28;679;-67
2022/08/27 00:43:52;;;;;;;;;;;;;;;22.89;58.06;101439.19;1043794;28;708;-67
2022/08/27 00:44:43;;;;;;;;;;;;;;;22.92;58.09;101438.03;1044270;28;674;-67
2022/08/27 00:45:33;;;;;;;;;;;;;;;22.93;57.86;101437.81;1043484;28;638;-67
2022/08/27 00:46:24;;;;;;;;;;;;;;;22.91;57.78;101437.16;1044256;28;662;-68
2022/08/27 00:47:14;;;;;;;;;;;;;;;22.90;57.88;101435.47;1046450;28;1959;-67
2022/08/27 00:48:05;;;;;;;;;;;;;;;22.90;58.22;101431.91;1046048;28;638;-67
2022/08/27 00:48:55;;;;;;;;;;;;;;;22.89;57.79;101435.63;1044387;28;630;-68
2022/08/27 00:49:46;;;;;;;;;;;;;;;22.91;57.97;101434.44;1044539;28;1304;-67
2022/08/27 00:50:37;;;;;;;;;;;;;;;22.91;58.01;101436.31;1045450;28;756;-67
2022/08/27 00:51:27;;;;;;;;;;;;;;;22.93;57.70;101437.00;1045564;28;743;-67
2022/08/27 00:52:18;;;;;;;;;;;;;;;22.91;57.86;101439.91;1045452;28;674;-67
2022/08/27 00:53:08;;;;;;;;;;;;;;;22.91;57.97;101434.44;1045038;28;689;-67
2022/08/27 00:54:01;;;;;;;;;;;;;;;22.91;57.96;101429.03;1044746;28;697;-67
2022/08/27 00:54:51;;;;;;;;;;;;;;;22.91;57.96;101431.75;1045441;28;684;-67
2022/08/27 00:55:42;;;;;;;;;;;;;;;22.91;57.75;101429.03;1044817;28;736;-67
2022/08/27 00:56:32;;;;;;;;;;;;;;;22.89;57.76;101439.19;1045450;28;676;-67
2022/08/27 00:57:23;;;;;;;;;;;;;;;22.88;58.24;101434.78;1044809;28;630;-67
2022/08/27 00:58:13;;;;;;;;;;;;;;;22.88;57.98;101437.50;1044864;28;658;-67
2022/08/27 00:59:04;;;;;;;;;;;;;;;22.90;57.71;101438.19;1045406;28;621;-67
2022/08/27 00:59:54;;;;;;;;;;;;;;;22.92;58.03;101438.88;1045407;28;689;-67
2022/08/27 01:00:45;;;;;;;;;;;;;;;22.90;57.98;101443.63;1044759;28;653;-67
2022/08/27 01:02:17;;;;;;;;;;;;;;;22.90;57.93;101448.22;1044813;28;881;-67
2022/08/27 01:02:46;;;;;;;;;;;;;;;22.88;57.71;101442.09;1045302;28;1396;-67
2022/08/27 01:03:36;;;;;;;;;;;;;;;22.88;58.18;101442.94;1045400;28;701;-67
2022/08/27 01:04:27;;;;;;;;;;;;;;;22.88;57.54;101440.22;1045436;28;712;-67
2022/08/27 01:05:17;;;;;;;;;;;;;;;22.88;57.80;101437.50;1044903;28;697;-67
2022/08/27 01:06:08;;;;;;;;;;;;;;;22.87;58.17;101435.78;1044821;28;733;-67
2022/08/27 01:06:58;;;;;;;;;;;;;;;22.88;57.90;101436.66;1045019;28;713;-67
2022/08/27 01:07:49;;;;;;;;;;;;;;;22.88;58.20;101437.50;1044782;28;697;-67
2022/08/27 01:08:39;;;;;;;;;;;;;;;22.86;58.00;101444.97;1044782;28;656;-68
2022/08/27 01:09:29;;;;;;;;;;;;;;;22.87;58.30;101443.09;1044904;28;721;-68
2022/08/27 01:10:20;;;;;;;;;;;;;;;22.87;58.20;101445.81;1044779;28;661;-67
2022/08/27 01:11:10;;;;;;;;;;;;;;;22.86;58.08;101447.69;1044846;28;717;-67
2022/08/27 01:12:01;;;;;;;;;;;;;;;22.85;57.94;101446.81;1044833;28;701;-67
2022/08/27 01:12:53;;;;;;;;;;;;;;;22.87;57.80;101448.53;1048318;28;855;-67
2022/08/27 01:13:43;;;;;;;;;;;;;;;22.89;57.86;101446.50;1049571;28;701;-67
2022/08/27 01:14:33;;;;;;;;;;;;;;;22.88;58.16;101450.25;1048438;28;701;-67
2022/08/27 01:15:24;;;;;;;;;;;;;;;22.89;57.82;101450.06;1049619;28;606;-67
2022/08/27 01:16:14;;;;;;;;;;;;;;;22.88;57.79;101447.50;1048698;28;665;-67
2022/08/27 01:17:05;;;;;;;;;;;;;;;22.85;57.74;101451.41;1049738;28;704;-68
2022/08/27 01:17:55;;;;;;;;;;;;;;;22.86;58.14;101458.56;1049394;28;664;-67
2022/08/27 01:18:46;;;;;;;;;;;;;;;22.86;57.80;101447.69;1048538;28;919;-67
2022/08/27 01:19:36;;;;;;;;;;;;;;;22.86;58.04;101455.84;1049261;28;630;-67
2022/08/27 01:20:27;;;;;;;;;;;;;;;22.87;58.14;101454.81;1049630;28;641;-67
2022/08/27 01:21:17;;;;;;;;;;;;;;;22.84;57.95;101458.72;1049472;28;646;-67
2022/08/27 01:22:08;;;;;;;;;;;;;;;22.85;58.19;101456.84;1049596;28;684;-66
2022/08/27 01:22:58;;;;;;;;;;;;;;;22.87;57.91;101454.81;1049394;28;626;-66
2022/08/27 01:23:49;;;;;;;;;;;;;;;22.84;58.29;101447.00;1049482;28;712;-66
2022/08/27 01:24:40;;;;;;;;;;;;;;;22.84;58.04;101455.16;1048155;28;638;-67
2022/08/27 01:25:30;;;;;;;;;;;;;;;22.84;58.01;101450.56;1049443;28;653;-67
2022/08/27 01:26:20;;;;;;;;;;;;;;;22.84;57.86;101452.44;1049103;28;676;-66
2022/08/27 01:27:11;;;;;;;;;;;;;;;22.83;58.37;101453.44;1049363;28;643;-66
2022/08/27 01:28:02;;;;;;;;;;;;;;;22.81;58.14;101460.91;1049444;28;664;-66
2022/08/27 01:28:52;;;;;;;;;;;;;;;22.81;57.83;101450.03;1048113;28;673;-66
2022/08/27 01:29:43;;;;;;;;;;;;;;;22.82;57.82;101465.31;1049815;28;648;-66
2022/08/27 01:30:35;;;;;;;;;;;;;;;22.83;58.28;101453.44;1048864;28;715;-66
2022/08/27 01:31:26;;;;;;;;;;;;;;;22.81;58.02;101463.63;1049463;28;645;-67
2022/08/27 01:32:16;;;;;;;;;;;;;;;22.83;57.92;101459.72;1047991;28;641;-67
2022/08/27 01:33:06;;;;;;;;;;;;;;;22.84;57.88;101453.28;1046149;28;692;-67
2022/08/27 01:33:57;;;;;;;;;;;;;;;22.83;57.82;101451.56;1045102;28;669;-66
2022/08/27 01:34:47;;;;;;;;;;;;;;;22.80;58.28;101453.75;1049409;28;641;-67
2022/08/27 01:35:38;;;;;;;;;;;;;;;22.79;57.98;101454.78;1049414;28;641;-66
2022/08/27 01:36:28;;;;;;;;;;;;;;;22.80;58.05;101449.19;1049530;28;716;-66
2022/08/27 01:37:19;;;;;;;;;;;;;;;22.79;57.94;101452.06;1049498;28;764;-67
2022/08/27 01:38:09;;;;;;;;;;;;;;;22.80;58.04;101454.63;1049413;28;653;-67
2022/08/27 01:38:59;;;;;;;;;;;;;;;22.82;58.14;101457.16;1049422;28;660;-67
2022/08/27 01:39:50;;;;;;;;;;;;;;;22.78;57.99;101462.06;1047880;28;796;-67
2022/08/27 01:40:40;;;;;;;;;;;;;;;22.80;58.17;101453.75;1049292;28;648;-67
2022/08/27 01:41:31;;;;;;;;;;;;;;;22.81;58.36;101453.59;1045713;28;618;-67
2022/08/27 01:42:21;;;;;;;;;;;;;;;22.82;58.29;101459.88;1045033;28;637;-66
2022/08/27 01:43:12;;;;;;;;;;;;;;;22.77;58.52;101462.25;1049308;28;711;-67
2022/08/27 01:44:02;;;;;;;;;;;;;;;22.75;58.40;101458.81;1049434;28;1043;-67
2022/08/27 01:44:53;;;;;;;;;;;;;;;22.78;58.19;101459.34;1049415;28;724;-67
2022/08/27 01:45:43;;;;;;;;;;;;;;;22.77;58.34;101446.78;1048105;28;689;-66
2022/08/27 01:46:35;;;;;;;;;;;;;;;22.78;58.37;101444.91;1049739;28;661;-67
2022/08/27 01:47:25;;;;;;;;;;;;;;;22.77;58.18;101457.66;1049381;28;1890;-67
2022/08/27 01:48:16;;;;;;;;;;;;;;;22.78;58.38;101458.50;1050518;28;693;-66
2022/08/27 01:49:07;;;;;;;;;;;;;;;22.76;57.82;101455.06;1049901;28;736;-66
2022/08/27 01:49:57;;;;;;;;;;;;;;;22.70;58.44;101458.47;1051486;28;1347;-67
2022/08/27 01:50:47;;;;;;;;;;;;;;;22.70;58.06;101455.75;1050408;28;692;-67
2022/08/27 01:51:38;;;;;;;;;;;;;;;22.69;58.16;101460.31;1050779;28;675;-67
2022/08/27 01:52:28;;;;;;;;;;;;;;;22.68;58.08;101455.06;1049693;28;721;-67
2022/08/27 01:53:19;;;;;;;;;;;;;;;22.71;58.32;101450.16;1049265;28;713;-67
2022/08/27 01:54:09;;;;;;;;;;;;;;;22.72;58.40;101448.28;1050434;28;689;-67
2022/08/27 01:55:00;;;;;;;;;;;;;;;22.74;57.94;101448.97;1050276;28;657;-67
2022/08/27 01:55:50;;;;;;;;;;;;;;;22.73;58.33;101447.25;1050883;28;645;-67
2022/08/27 01:56:41;;;;;;;;;;;;;;;22.71;58.45;101442.00;1050784;28;708;-67
2022/08/27 01:57:31;;;;;;;;;;;;;;;22.71;58.11;101450.16;1050898;28;672;-67
2022/08/27 01:58:22;;;;;;;;;;;;;;;22.74;58.06;101448.97;1050742;28;704;-67
2022/08/27 01:59:12;;;;;;;;;;;;;;;22.73;58.36;101441.84;1050700;28;621;-68
2022/08/27 02:00:03;;;;;;;;;;;;;;;22.72;58.43;101449.13;1049454;28;724;-67
2022/08/27 02:00:53;;;;;;;;;;;;;;;22.69;57.85;101448.59;1050497;28;719;-67
2022/08/27 02:01:43;;;;;;;;;;;;;;;22.71;58.08;101449.28;1050759;28;638;-66
2022/08/27 02:02:34;;;;;;;;;;;;;;;22.74;58.34;101451.69;1050780;28;642;-67
2022/08/27 02:03:25;;;;;;;;;;;;;;;22.76;57.93;101444.19;1049537;28;642;-66
2022/08/27 02:04:16;;;;;;;;;;;;;;;22.76;58.25;101455.06;1052037;28;633;-67
2022/08/27 02:05:06;;;;;;;;;;;;;;;22.75;57.90;101445.25;1050824;28;752;-67
2022/08/27 02:05:57;;;;;;;;;;;;;;;22.74;58.23;101448.97;1050698;28;650;-67
2022/08/27 02:06:47;;;;;;;;;;;;;;;22.73;58.42;101441.84;1050756;28;645;-67
2022/08/27 02:07:38;;;;;;;;;;;;;;;22.72;58.43;101446.41;1050833;28;1974;-67
2022/08/27 02:08:28;;;;;;;;;;;;;;;22.70;58.56;101442.16;1050765;28;636;-67
2022/08/27 02:09:18;;;;;;;;;;;;;;;22.72;57.90;101440.13;1050724;28;657;-66
2022/08/27 02:10:09;;;;;;;;;;;;;;;22.68;58.08;101445.03;1050660;28;878;-67
2022/08/27 02:10:59;;;;;;;;;;;;;;;22.67;58.17;101442.47;1050709;28;736;-67
2022/08/27 02:11:50;;;;;;;;;;;;;;;22.65;58.48;101434.50;1049817;28;724;-66
2022/08/27 02:12:40;;;;;;;;;;;;;;;22.66;58.07;101435.34;1043939;28;705;-67
2022/08/27 02:13:30;;;;;;;;;;;;;;;22.70;58.36;101439.44;1043873;28;660;-67
2022/08/27 02:14:21;;;;;;;;;;;;;;;22.66;58.33;101443.50;1048253;28;689;-66
2022/08/27 02:15:12;;;;;;;;;;;;;;;22.66;58.54;101435.34;1046534;28;626;-67
2022/08/27 02:16:02;;;;;;;;;;;;;;;22.67;58.48;101434.31;1046612;28;633;-67
2022/08/27 02:16:53;;;;;;;;;;;;;;;22.61;58.67;101432.25;1046593;28;666;-66
2022/08/27 02:17:43;;;;;;;;;;;;;;;22.61;58.10;101422.25;1046702;28;1339;-66
2022/08/27 02:18:35;;;;;;;;;;;;;;;22.62;58.48;101420.38;1046089;28;673;-67
2022/08/27 02:19:26;;;;;;;;;;;;;;;22.64;58.53;101421.91;1046604;28;704;-67
2022/08/27 02:20:17;;;;;;;;;;;;;;;22.61;58.61;101426.81;1046037;28;756;-67
2022/08/27 02:21:07;;;;;;;;;;;;;;;22.62;58.50;101428.53;1046560;28;686;-67
2022/08/27 02:21:59;;;;;;;;;;;;;;;22.60;58.53;101425.13;1046649;28;704;-66
2022/08/27 02:22:49;;;;;;;;;;;;;;;22.61;58.36;101432.25;1047153;28;692;-67
2022/08/27 02:23:41;;;;;;;;;;;;;;;22.57;58.55;101426.31;1046647;28;653;-67
2022/08/27 02:24:31;;;;;;;;;;;;;;;22.57;58.28;101423.59;1046561;28;657;-66
2022/08/27 02:25:22;;;;;;;;;;;;;;;22.58;58.40;101419.00;1046531;28;736;-67
2022/08/27 02:26:12;;;;;;;;;;;;;;;22.61;58.13;101426.81;1046635;28;776;-67
2022/08/27 02:27:03;;;;;;;;;;;;;;;22.61;58.23;101427.66;1046567;28;653;-67
2022/08/27 02:27:53;;;;;;;;;;;;;;;;;;1046575;28;715;-67
2022/08/27 02:28:44;;;;;;;;;;;;;;;22.61;58.39;101427.66;1046604;28;646;-66
2022/08/27 02:29:34;;;;;;;;;;;;;;;22.56;58.22;101423.75;1046536;28;650;-66
2022/08/27 02:30:25;;;;;;;;;;;;;;;22.57;58.64;101423.59;1046568;28;712;-67
2022/08/27 02:31:17;;;;;;;;;;;;;;;22.56;58.49;101434.63;1045964;28;660;-67
2022/08/27 02:32:07;;;;;;;;;;;;;;;22.56;58.36;101429.19;1046499;28;618;-67
2022/08/27 02:32:59;;;;;;;;;;;;;;;22.59;58.58;101429.69;1042167;28;724;-66
2022/08/27 02:33:50;;;;;;;;;;;;;;;22.57;58.52;101420.88;1042128;28;708;-67
2022/08/27 02:34:40;;;;;;;;;;;;;;;22.58;58.34;101427.13;1046572;28;665;-67
2022/08/27 02:35:30;;;;;;;;;;;;;;;22.59;58.35;101417.97;1046655;28;696;-67
2022/08/27 02:36:21;;;;;;;;;;;;;;;22.55;58.61;101427.50;1045910;28;665;-67
2022/08/27 02:37:11;;;;;;;;;;;;;;;22.54;58.51;101423.94;1046086;28;799;-67
2022/08/27 02:38:02;;;;;;;;;;;;;;;22.54;58.53;101425.78;1042097;28;685;-67
2022/08/27 02:38:52;;;;;;;;;;;;;;;22.56;58.58;101418.34;1041588;28;636;-66
2022/08/27 02:39:43;;;;;;;;;;;;;;;22.57;58.69;101417.31;1045310;28;654;-66
2022/08/27 02:40:33;;;;;;;;;;;;;;;22.55;58.18;101427.50;1046081;28;633;-67
2022/08/27 02:41:24;;;;;;;;;;;;;;;22.55;58.63;101416.63;1046548;28;661;-66
2022/08/27 02:42:14;;;;;;;;;;;;;;;22.51;58.33;101416.94;1046423;28;665;-66
2022/08/27 02:43:05;;;;;;;;;;;;;;;22.54;58.64;101420.34;1045901;28;697;-66
2022/08/27 02:43:56;;;;;;;;;;;;;;;22.54;58.51;101420.34;1047152;28;704;-66
2022/08/27 02:44:46;;;;;;;;;;;;;;;22.55;58.73;101422.06;1046583;28;665;-67
2022/08/27 02:45:37;;;;;;;;;;;;;;;22.56;58.39;101416.47;1047181;28;870;-66
2022/08/27 02:46:28;;;;;;;;;;;;;;;22.52;58.48;101420.50;1046475;28;735;-67
2022/08/27 02:47:18;;;;;;;;;;;;;;;22.51;58.65;101426.97;1042821;28;642;-67
2022/08/27 02:48:08;;;;;;;;;;;;;;;22.52;58.75;101423.22;1042091;28;693;-67
2022/08/27 02:48:59;;;;;;;;;;;;;;;22.49;58.46;101410.81;1046465;28;665;-66
2022/08/27 02:49:50;;;;;;;;;;;;;;;22.50;58.53;101425.25;1048596;28;1178;-67
2022/08/27 02:50:42;;;;;;;;;;;;;;;22.52;58.71;101428.66;1050053;28;701;-67
2022/08/27 02:51:32;;;;;;;;;;;;;;;22.51;58.19;101427.81;1049638;28;679;-67
2022/08/27 02:52:23;;;;;;;;;;;;;;;22.50;58.36;101426.09;1050692;28;688;-66
2022/08/27 02:53:13;;;;;;;;;;;;;;;22.52;58.45;101423.22;1050191;28;689;-67
2022/08/27 02:54:04;;;;;;;;;;;;;;;22.50;58.57;101426.09;1050163;28;569;-67
2022/08/27 02:54:54;;;;;;;;;;;;;;;22.49;58.91;101429.84;1050668;28;606;-66
2022/08/27 02:55:44;;;;;;;;;;;;;;;22.48;58.59;101428.13;1049633;28;681;-66
2022/08/27 02:56:35;;;;;;;;;;;;;;;22.46;58.82;101427.44;1050702;28;693;-66
2022/08/27 02:57:25;;;;;;;;;;;;;;;22.47;58.55;101425.56;1049572;28;681;-66
2022/08/27 02:58:16;;;;;;;;;;;;;;;22.48;58.30;101432.72;1049334;28;622;-67
2022/08/27 02:59:06;;;;;;;;;;;;;;;22.42;58.62;101426.06;1050602;28;708;-66
2022/08/27 02:59:57;;;;;;;;;;;;;;;22.44;58.82;101431.31;1049422;28;673;-66
2022/08/27 03:00:47;;;;;;;;;;;;;;;22.40;58.50;101419.94;1048897;28;610;-67
2022/08/27 03:01:38;;;;;;;;;;;;;;;22.39;59.01;101417.41;1049518;28;724;-67
2022/08/27 03:02:28;;;;;;;;;;;;;;;22.40;58.57;101421.78;1049469;28;847;-67
2022/08/27 03:03:19;;;;;;;;;;;;;;;22.42;58.89;101422.50;1049857;28;696;-66
2022/08/27 03:04:09;;;;;;;;;;;;;;;22.42;58.95;101423.34;1049974;28;681;-66
2022/08/27 03:05:00;;;;;;;;;;;;;;;22.44;58.66;101415.88;1049375;28;645;-66
2022/08/27 03:05:51;;;;;;;;;;;;;;;22.45;58.48;101417.59;1050037;28;662;-67
2022/08/27 03:06:42;;;;;;;;;;;;;;;22.44;58.55;101415.88;1048968;28;621;-67
2022/08/27 03:07:32;;;;;;;;;;;;;;;22.41;58.65;101418.06;1048253;28;1886;-67
2022/08/27 03:08:23;;;;;;;;;;;;;;;22.44;58.82;101415.03;1049977;28;642;-67
2022/08/27 03:09:13;;;;;;;;;;;;;;;22.42;58.92;101415.19;1044942;28;740;-67
2022/08/27 03:10:04;;;;;;;;;;;;;;;22.43;58.81;101414.19;1044948;28;638;-67
2022/08/27 03:10:54;;;;;;;;;;;;;;;22.42;58.57;101412.47;1049385;28;669;-67
2022/08/27 03:11:45;;;;;;;;;;;;;;;22.43;58.48;101411.47;1050041;28;735;-67
2022/08/27 03:12:35;;;;;;;;;;;;;;;22.43;58.39;101413.31;1041319;28;1227;-67
2022/08/27 03:13:26;;;;;;;;;;;;;;;22.42;58.65;101412.47;1041315;28;654;-67
2022/08/27 03:14:16;;;;;;;;;;;;;;;22.44;58.76;101410.44;1045647;28;630;-67
2022/08/27 03:15:06;;;;;;;;;;;;;;;22.43;58.55;101407.91;1044858;28;693;-67
2022/08/27 03:15:57;;;;;;;;;;;;;;;22.44;58.51;101410.44;1044615;28;677;-67
2022/08/27 03:16:48;;;;;;;;;;;;;;;22.43;58.76;101408.75;1045840;28;681;-68
2022/08/27 03:18:47;;;;;;;;;;;;;;;22.38;58.92;101408.41;1045256;28;648;-67
2022/08/27 03:19:38;;;;;;;;;;;;;;;22.39;58.36;101404.66;1044649;28;720;-67
2022/08/27 03:20:28;;;;;;;;;;;;;;;22.36;58.61;101412.28;1044531;28;655;-67
2022/08/27 03:21:19;;;;;;;;;;;;;;;22.38;59.04;101408.41;1044774;28;721;-67
2022/08/27 03:22:09;;;;;;;;;;;;;;;22.37;58.78;101409.41;1044080;28;708;-67
2022/08/27 03:22:59;;;;;;;;;;;;;;;22.38;58.52;101408.41;1044749;28;728;-67
2022/08/27 03:23:50;;;;;;;;;;;;;;;22.40;58.61;101413.66;1044485;28;617;-66
2022/08/27 03:24:40;;;;;;;;;;;;;;;22.35;58.75;101406.00;1044677;28;664;-67
2022/08/27 03:25:31;;;;;;;;;;;;;;;22.36;58.92;101409.56;1044471;28;665;-66
2022/08/27 03:26:21;;;;;;;;;;;;;;;22.36;58.68;101409.56;1044583;28;752;-67
2022/08/27 03:27:12;;;;;;;;;;;;;;;22.36;58.71;101412.28;1044804;28;628;-67
2022/08/27 03:28:02;;;;;;;;;;;;;;;22.35;58.70;101405.16;1044554;28;697;-67
2022/08/27 03:28:52;;;;;;;;;;;;;;;22.34;58.98;101404.31;1044795;28;654;-68
2022/08/27 03:29:43;;;;;;;;;;;;;;;22.28;59.06;101404.94;1044542;28;614;-68
2022/08/27 03:30:33;;;;;;;;;;;;;;;22.29;58.91;101406.66;1044650;28;653;-68
2022/08/27 03:31:27;;;;;;;;;;;;;;;22.31;58.88;101404.63;1048985;28;760;-65
2022/08/27 03:32:17;;;;;;;;;;;;;;;22.33;58.69;101402.59;1049546;28;680;-67
2022/08/27 03:33:07;;;;;;;;;;;;;;;22.30;58.97;101402.91;1045856;28;708;-66
2022/08/27 03:33:58;;;;;;;;;;;;;;;22.23;59.15;101401.84;1044515;28;700;-67
2022/08/27 03:34:48;;;;;;;;;;;;;;;22.26;59.09;101401.53;1044662;28;626;-67
2022/08/27 03:35:39;;;;;;;;;;;;;;;22.26;58.77;101406.13;1044682;28;663;-66
2022/08/27 03:36:29;;;;;;;;;;;;;;;22.31;59.03;101410.06;1044010;28;693;-66
2022/08/27 03:37:20;;;;;;;;;;;;;;;22.32;58.71;101405.47;1044637;28;657;-66
2022/08/27 03:38:10;;;;;;;;;;;;;;;22.32;58.49;101409.03;1044553;28;704;-67
2022/08/27 03:39:00;;;;;;;;;;;;;;;22.33;58.64;101409.91;1044684;28;677;-67
2022/08/27 03:39:51;;;;;;;;;;;;;;;22.31;58.99;101407.34;1045040;28;608;-67
2022/08/27 03:40:42;;;;;;;;;;;;;;;22.30;59.08;101402.06;1044529;28;618;-69
2022/08/27 03:41:32;;;;;;;;;;;;;;;22.31;58.70;101410.06;1045636;28;708;-67
2022/08/27 03:42:23;;;;;;;;;;;;;;;22.30;59.04;101408.34;1044589;28;718;-66
2022/08/27 03:43:13;;;;;;;;;;;;;;;22.31;59.09;101410.06;1044437;28;702;-66
2022/08/27 03:44:03;;;;;;;;;;;;;;;22.26;58.94;101406.13;1044619;28;649;-66
2022/08/27 03:44:54;;;;;;;;;;;;;;;22.27;58.97;101410.53;1044373;28;772;-67
2022/08/27 03:45:44;;;;;;;;;;;;;;;22.28;58.66;101413.09;1048447;28;654;-67
2022/08/27 03:46:35;;;;;;;;;;;;;;;22.26;59.13;101408.84;1050145;28;696;-66
2022/08/27 03:47:25;;;;;;;;;;;;;;;22.26;59.08;101411.53;1045655;28;1961;-68
2022/08/27 03:48:17;;;;;;;;;;;;;;;22.28;58.85;101406.81;1044992;28;724;-67
2022/08/27 03:49:08;;;;;;;;;;;;;;;22.27;58.75;101407.81;1045641;28;698;-67
2022/08/27 03:50:01;;;;;;;;;;;;;;;22.26;59.15;101412.41;1040876;28;1055;-66
2022/08/27 03:50:52;;;;;;;;;;;;;;;22.24;58.85;101411.72;1042036;28;645;-66
2022/08/27 03:51:42;;;;;;;;;;;;;;;22.27;58.66;101408.66;1042708;28;677;-66
2022/08/27 03:52:32;;;;;;;;;;;;;;;22.23;59.08;101412.72;1042732;28;739;-67
2022/08/27 03:53:23;;;;;;;;;;;;;;;22.25;59.11;101404.41;1042744;28;724;-66
2022/08/27 03:54:14;;;;;;;;;;;;;;;22.18;59.01;101412.38;1042592;28;621;-66
2022/08/27 03:55:04;;;;;;;;;;;;;;;22.23;58.96;101407.28;1042631;28;645;-66
2022/08/27 03:55:54;;;;;;;;;;;;;;;22.24;58.70;101409.00;1042619;28;674;-67
2022/08/27 03:56:45;;;;;;;;;;;;;;;22.24;59.32;101413.56;1037748;28;697;-67
2022/08/27 03:57:36;;;;;;;;;;;;;;;22.23;59.21;101406.44;1037120;28;682;-66
2022/08/27 03:58:26;;;;;;;;;;;;;;;22.22;58.78;101402.88;1042562;28;630;-66
2022/08/27 03:59:17;;;;;;;;;;;;;;;22.22;58.78;101412.88;1037184;28;845;-66
2022/08/27 04:00:09;;;;;;;;;;;;;;;22.21;58.88;101412.06;1038323;28;657;-67
2022/08/27 04:01:00;;;;;;;;;;;;;;;22.21;59.19;101408.50;1041519;28;661;-66
2022/08/27 04:01:50;;;;;;;;;;;;;;;22.19;58.83;101415.94;1042648;28;677;-66
2022/08/27 04:02:41;;;;;;;;;;;;;;;22.15;59.12;101420.84;1042475;28;724;-66
2022/08/27 04:03:31;;;;;;;;;;;;;;;22.16;58.94;101414.41;1041432;28;693;-67
2022/08/27 04:04:25;;;;;;;;;;;;;;;22.17;59.08;101413.38;1042591;28;645;-66
2022/08/27 04:05:15;;;;;;;;;;;;;;;22.20;58.71;101413.06;1041500;28;653;-66
2022/08/27 04:06:06;;;;;;;;;;;;;;;22.18;59.05;101415.09;1041561;28;697;-66
2022/08/27 04:06:56;;;;;;;;;;;;;;;22.19;58.78;101408.66;1041549;28;762;-66
2022/08/27 04:07:47;;;;;;;;;;;;;;;22.18;58.83;101412.38;1041435;28;1906;-66
2022/08/27 04:08:37;;;;;;;;;;;;;;;22.19;58.88;101407.78;1042715;28;609;-66
2022/08/27 04:09:28;;;;;;;;;;;;;;;22.18;58.77;101415.09;1042504;28;646;-66
2022/08/27 04:10:18;;;;;;;;;;;;;;;22.18;59.12;101417.81;1041584;28;689;-66
2022/08/27 04:11:09;;;;;;;;;;;;;;;22.11;59.33;101416.72;1042235;28;858;-66
2022/08/27 04:11:59;;;;;;;;;;;;;;;22.09;59.36;101413.31;1042036;28;657;-66
2022/08/27 04:12:50;;;;;;;;;;;;;;;22.11;59.19;101412.16;1040706;28;641;-66
2022/08/27 04:13:40;;;;;;;;;;;;;;;22.12;59.33;101415.72;1041128;28;697;-66
2022/08/27 04:14:30;;;;;;;;;;;;;;;22.15;58.91;101421.69;1044655;28;657;-67
2022/08/27 04:15:21;;;;;;;;;;;;;;;22.13;59.17;101417.44;1046265;28;626;-67
2022/08/27 04:16:11;;;;;;;;;;;;;;;22.17;59.16;101410.66;1046066;28;712;-67
2022/08/27 04:17:02;;;;;;;;;;;;;;;22.15;59.30;101418.13;1046227;28;946;-66
2022/08/27 04:17:52;;;;;;;;;;;;;;;22.14;58.90;101414.56;1046135;28;610;-67
2022/08/27 04:18:43;;;;;;;;;;;;;;;22.12;58.98;101415.72;1046106;28;641;-66
2022/08/27 04:19:34;;;;;;;;;;;;;;;22.12;59.36;101415.72;1044992;28;622;-67
2022/08/27 04:20:24;;;;;;;;;;;;;;;22.08;59.49;101422.47;1044896;28;669;-67
2022/08/27 04:21:14;;;;;;;;;;;;;;;22.11;59.34;101420.28;1046147;28;677;-67
2022/08/27 04:22:05;;;;;;;;;;;;;;;22.15;59.09;101420.84;1046229;28;638;-66
2022/08/27 04:22:56;;;;;;;;;;;;;;;22.17;59.14;101421.53;1045036;28;649;-67
2022/08/27 04:23:46;;;;;;;;;;;;;;;22.14;59.08;101419.97;1049392;28;645;-67
2022/08/27 04:24:37;;;;;;;;;;;;;;;22.13;59.20;101417.44;1048820;28;669;-66
2022/08/27 04:25:27;;;;;;;;;;;;;;;22.10;59.26;101417.75;1044452;28;638;-66
2022/08/27 04:26:18;;;;;;;;;;;;;;;22.13;59.11;101417.44;1046041;28;641;-66
2022/08/27 04:27:09;;;;;;;;;;;;;;;22.09;58.83;101421.47;1046172;28;637;-66
2022/08/27 04:28:00;;;;;;;;;;;;;;;22.06;59.04;101425.34;1046071;28;711;-66